This is the latest recevied weather packets stored in our database for station/object W1CAT. If no packets are shown the sender has not sent any weather packets the latest 10 day(s).
| Time | Temp. | Humidity | Pressure | Rain* | Wind** | Luminosity | Snow |
|---|---|---|---|---|---|---|---|
| 1777484061 | 9.44° C | 45% | - | 0 mm | - | - | - |
| 1777483758 | 13.33° C | 36% | - | 0 mm | - | - | - |
| 1777483454 | 13.89° C | 36% | - | 0 mm | - | - | - |
| 1777483149 | 13.33° C | 37% | - | 0 mm | - | - | - |
| 1777482846 | 14.44° C | 35% | - | 0 mm | - | - | - |
| 1777482542 | 15.56° C | 34% | - | 0 mm | - | - | - |
| 1777482240 | 15.56° C | 34% | - | 0 mm | - | - | - |
| 1777481936 | 13.33° C | 37% | - | 0 mm | - | - | - |
| 1777481634 | 15° C | 35% | - | 0 mm | - | - | - |
| 1777481331 | 15.56° C | 34% | - | 0 mm | - | - | - |
| 1777481028 | 14.44° C | 36% | - | 0 mm | - | - | - |
| 1777480724 | 13.89° C | 37% | - | 0 mm | - | - | - |
| 1777480421 | 12.78° C | 39% | - | 0 mm | - | - | - |
| 1777480117 | 11.67° C | 41% | - | 0 mm | - | - | - |
| 1777479813 | 10.56° C | 45% | - | 0 mm | - | - | - |
| 1777479511 | 11.11° C | 43% | - | 0 mm | - | - | - |
| 1777479207 | 11.11° C | 43% | - | 0 mm | - | - | - |
| 1777478904 | 8.89° C | 49% | - | 0 mm | - | - | - |
| 1777478601 | 8.89° C | 49% | - | 0 mm | - | - | - |
| 1777478298 | 9.44° C | 49% | - | 0 mm | - | - | - |
| 1777477994 | 9.44° C | 50% | - | 0 mm | - | - | - |
| 1777477690 | 10.56° C | 47% | - | 0 mm | - | - | - |
| 1777477387 | 10° C | 48% | - | 0 mm | - | - | - |
| 1777477083 | 9.44° C | 50% | - | 0 mm | - | - | - |
| 1777476781 | 9.44° C | 51% | - | 0 mm | - | - | - |
* Rain latest hour (hover to see other rain measurements)
** Current wind speed in m/s (hover to see current wind gust speed)